Terminal Aerodrome Forecast
Issued by NWS Jackson, KY

Home | Current Version | Previous Version | Text Only | Print | Product List | Glossary On
Versions: 1 2 3 4 5 6 7 8 9 10 11 12 13
000
FTUS43 KJKL 251120
TAFLOZ
TAF
KLOZ 251120Z 2512/2612 21002KT P6SM FEW030 SCT150
     FM251700 24005KT P6SM VCTS SCT040CB BKN150
     FM260200 23003KT P6SM SCT035 BKN100=

USA.gov is the U.S. government's official web portal to all federal, state and local government web resources and services.